sensor_id;sensor_type;location;lat;lon;timestamp;P1;durP1;ratioP1;P2;durP2;ratioP2
35394;SDS011;21500;45.308;9.488;2022-11-12T00:01:55;67.00;;;34.22;;
35394;SDS011;21500;45.308;9.488;2022-11-12T00:04:40;53.60;;;30.52;;
35394;SDS011;21500;45.308;9.488;2022-11-12T00:07:24;63.95;;;34.70;;
35394;SDS011;21500;45.308;9.488;2022-11-12T00:10:09;48.72;;;32.75;;
35394;SDS011;21500;45.308;9.488;2022-11-12T00:12:53;49.95;;;33.65;;
35394;SDS011;21500;45.308;9.488;2022-11-12T00:15:38;50.00;;;33.40;;
35394;SDS011;21500;45.308;9.488;2022-11-12T00:18:23;58.53;;;36.05;;
35394;SDS011;21500;45.308;9.488;2022-11-12T00:21:08;55.70;;;35.45;;
35394;SDS011;21500;45.308;9.488;2022-11-12T00:23:52;70.93;;;38.15;;
35394;SDS011;21500;45.308;9.488;2022-11-12T00:26:36;67.15;;;37.80;;
35394;SDS011;21500;45.308;9.488;2022-11-12T00:29:20;65.13;;;37.05;;
35394;SDS011;21500;45.308;9.488;2022-11-12T00:32:05;61.88;;;37.33;;
35394;SDS011;21500;45.308;9.488;2022-11-12T00:34:49;64.68;;;36.60;;
35394;SDS011;21500;45.308;9.488;2022-11-12T00:37:35;97.90;;;39.08;;
35394;SDS011;21500;45.308;9.488;2022-11-12T00:40:19;95.18;;;36.90;;
35394;SDS011;21500;45.308;9.488;2022-11-12T00:43:03;85.78;;;37.80;;
35394;SDS011;21500;45.308;9.488;2022-11-12T00:45:48;76.30;;;37.78;;
35394;SDS011;21500;45.308;9.488;2022-11-12T00:48:32;69.32;;;36.28;;
35394;SDS011;21500;45.308;9.488;2022-11-12T00:51:17;67.20;;;38.13;;
35394;SDS011;21500;45.308;9.488;2022-11-12T00:54:02;124.57;;;41.25;;
35394;SDS011;21500;45.308;9.488;2022-11-12T00:56:47;116.88;;;40.50;;
35394;SDS011;21500;45.308;9.488;2022-11-12T00:59:32;110.78;;;42.70;;
35394;SDS011;21500;45.308;9.488;2022-11-12T01:02:16;111.50;;;44.05;;
35394;SDS011;21500;45.308;9.488;2022-11-12T01:05:03;148.13;;;42.42;;
35394;SDS011;21500;45.308;9.488;2022-11-12T01:07:47;100.60;;;44.47;;
35394;SDS011;21500;45.308;9.488;2022-11-12T01:10:33;79.93;;;42.72;;
35394;SDS011;21500;45.308;9.488;2022-11-12T01:13:19;119.10;;;47.03;;
35394;SDS011;21500;45.308;9.488;2022-11-12T01:16:07;89.82;;;48.55;;
35394;SDS011;21500;45.308;9.488;2022-11-12T01:18:53;97.07;;;45.17;;
35394;SDS011;21500;45.308;9.488;2022-11-12T01:21:41;128.23;;;50.03;;
35394;SDS011;21500;45.308;9.488;2022-11-12T01:24:27;84.50;;;42.17;;
35394;SDS011;21500;45.308;9.488;2022-11-12T01:27:11;169.02;;;43.97;;
35394;SDS011;21500;45.308;9.488;2022-11-12T01:29:56;259.92;;;53.95;;
35394;SDS011;21500;45.308;9.488;2022-11-12T01:32:40;282.45;;;52.63;;
35394;SDS011;21500;45.308;9.488;2022-11-12T01:35:25;121.05;;;43.80;;
35394;SDS011;21500;45.308;9.488;2022-11-12T01:38:09;86.65;;;44.15;;
35394;SDS011;21500;45.308;9.488;2022-11-12T01:40:53;91.78;;;43.53;;
35394;SDS011;21500;45.308;9.488;2022-11-12T01:43:38;122.15;;;49.25;;
35394;SDS011;21500;45.308;9.488;2022-11-12T01:46:24;134.60;;;43.72;;
35394;SDS011;21500;45.308;9.488;2022-11-12T01:49:20;134.18;;;46.85;;
35394;SDS011;21500;45.308;9.488;2022-11-12T01:52:21;113.38;;;41.50;;
35394;SDS011;21500;45.308;9.488;2022-11-12T01:55:12;477.80;;;81.25;;
35394;SDS011;21500;45.308;9.488;2022-11-12T01:58:11;182.35;;;46.97;;
35394;SDS011;21500;45.308;9.488;2022-11-12T02:00:59;159.63;;;47.67;;
35394;SDS011;21500;45.308;9.488;2022-11-12T02:03:45;219.23;;;55.40;;
35394;SDS011;21500;45.308;9.488;2022-11-12T02:06:29;214.63;;;51.63;;
35394;SDS011;21500;45.308;9.488;2022-11-12T02:09:15;161.07;;;52.65;;
35394;SDS011;21500;45.308;9.488;2022-11-12T02:12:00;255.30;;;58.78;;
35394;SDS011;21500;45.308;9.488;2022-11-12T02:14:45;91.50;;;45.67;;
35394;SDS011;21500;45.308;9.488;2022-11-12T02:17:29;114.90;;;47.80;;
35394;SDS011;21500;45.308;9.488;2022-11-12T02:20:15;163.98;;;54.33;;
35394;SDS011;21500;45.308;9.488;2022-11-12T02:22:59;99.10;;;47.47;;
35394;SDS011;21500;45.308;9.488;2022-11-12T02:25:43;106.88;;;46.67;;
35394;SDS011;21500;45.308;9.488;2022-11-12T02:28:27;86.82;;;43.15;;
35394;SDS011;21500;45.308;9.488;2022-11-12T02:31:15;108.82;;;48.25;;
35394;SDS011;21500;45.308;9.488;2022-11-12T02:34:00;88.53;;;47.70;;
35394;SDS011;21500;45.308;9.488;2022-11-12T02:36:45;78.97;;;46.72;;
35394;SDS011;21500;45.308;9.488;2022-11-12T02:39:29;89.22;;;48.75;;
35394;SDS011;21500;45.308;9.488;2022-11-12T02:42:13;97.35;;;49.50;;
35394;SDS011;21500;45.308;9.488;2022-11-12T02:44:57;85.72;;;48.58;;
35394;SDS011;21500;45.308;9.488;2022-11-12T02:47:42;125.15;;;53.58;;
35394;SDS011;21500;45.308;9.488;2022-11-12T02:50:27;97.07;;;50.70;;
35394;SDS011;21500;45.308;9.488;2022-11-12T02:53:11;94.63;;;49.53;;
35394;SDS011;21500;45.308;9.488;2022-11-12T02:55:55;113.68;;;51.95;;
35394;SDS011;21500;45.308;9.488;2022-11-12T02:58:39;118.20;;;52.17;;
35394;SDS011;21500;45.308;9.488;2022-11-12T03:01:23;110.40;;;51.08;;
35394;SDS011;21500;45.308;9.488;2022-11-12T03:04:08;122.45;;;51.08;;
35394;SDS011;21500;45.308;9.488;2022-11-12T03:06:52;118.95;;;50.50;;
35394;SDS011;21500;45.308;9.488;2022-11-12T03:09:36;151.85;;;54.42;;
35394;SDS011;21500;45.308;9.488;2022-11-12T03:12:21;157.77;;;54.78;;
35394;SDS011;21500;45.308;9.488;2022-11-12T03:15:05;165.00;;;62.10;;
35394;SDS011;21500;45.308;9.488;2022-11-12T03:17:50;235.18;;;65.95;;
35394;SDS011;21500;45.308;9.488;2022-11-12T03:20:34;191.75;;;62.45;;
35394;SDS011;21500;45.308;9.488;2022-11-12T03:23:19;220.65;;;67.70;;
35394;SDS011;21500;45.308;9.488;2022-11-12T03:26:04;301.23;;;74.25;;
35394;SDS011;21500;45.308;9.488;2022-11-12T03:28:49;248.55;;;72.13;;
35394;SDS011;21500;45.308;9.488;2022-11-12T03:31:35;294.27;;;76.15;;
35394;SDS011;21500;45.308;9.488;2022-11-12T03:34:19;331.55;;;81.35;;
35394;SDS011;21500;45.308;9.488;2022-11-12T03:37:04;324.52;;;79.65;;
35394;SDS011;21500;45.308;9.488;2022-11-12T03:39:52;267.13;;;72.70;;
35394;SDS011;21500;45.308;9.488;2022-11-12T03:42:43;205.45;;;67.13;;
35394;SDS011;21500;45.308;9.488;2022-11-12T03:45:29;191.70;;;66.30;;
35394;SDS011;21500;45.308;9.488;2022-11-12T03:48:13;236.00;;;67.88;;
35394;SDS011;21500;45.308;9.488;2022-11-12T03:50:58;330.83;;;81.80;;
35394;SDS011;21500;45.308;9.488;2022-11-12T03:53:43;278.95;;;75.43;;
35394;SDS011;21500;45.308;9.488;2022-11-12T03:56:31;256.17;;;71.00;;
35394;SDS011;21500;45.308;9.488;2022-11-12T03:59:17;129.07;;;57.47;;
35394;SDS011;21500;45.308;9.488;2022-11-12T04:02:04;124.82;;;59.15;;
35394;SDS011;21500;45.308;9.488;2022-11-12T04:04:49;222.20;;;67.15;;
35394;SDS011;21500;45.308;9.488;2022-11-12T04:07:59;111.25;;;54.28;;
35394;SDS011;21500;45.308;9.488;2022-11-12T04:11:09;127.25;;;52.50;;
35394;SDS011;21500;45.308;9.488;2022-11-12T04:13:55;98.10;;;52.53;;
35394;SDS011;21500;45.308;9.488;2022-11-12T04:16:41;142.43;;;53.38;;
35394;SDS011;21500;45.308;9.488;2022-11-12T04:19:44;197.05;;;62.80;;
35394;SDS011;21500;45.308;9.488;2022-11-12T04:22:47;164.35;;;58.42;;
35394;SDS011;21500;45.308;9.488;2022-11-12T04:25:31;107.75;;;53.90;;
35394;SDS011;21500;45.308;9.488;2022-11-12T04:28:34;175.43;;;60.38;;
35394;SDS011;21500;45.308;9.488;2022-11-12T04:31:19;218.60;;;58.70;;
35394;SDS011;21500;45.308;9.488;2022-11-12T04:34:04;140.82;;;54.38;;
35394;SDS011;21500;45.308;9.488;2022-11-12T04:37:06;122.72;;;55.22;;
35394;SDS011;21500;45.308;9.488;2022-11-12T04:39:51;204.10;;;58.38;;
35394;SDS011;21500;45.308;9.488;2022-11-12T04:42:36;117.78;;;50.88;;
35394;SDS011;21500;45.308;9.488;2022-11-12T04:45:39;100.28;;;51.17;;
35394;SDS011;21500;45.308;9.488;2022-11-12T04:48:24;130.70;;;57.17;;
35394;SDS011;21500;45.308;9.488;2022-11-12T04:51:09;191.48;;;55.80;;
35394;SDS011;21500;45.308;9.488;2022-11-12T04:54:12;190.02;;;56.40;;
35394;SDS011;21500;45.308;9.488;2022-11-12T04:56:56;138.70;;;53.95;;
35394;SDS011;21500;45.308;9.488;2022-11-12T04:59:40;105.70;;;48.35;;
35394;SDS011;21500;45.308;9.488;2022-11-12T05:02:25;108.72;;;49.53;;
35394;SDS011;21500;45.308;9.488;2022-11-12T05:05:09;184.25;;;52.60;;
35394;SDS011;21500;45.308;9.488;2022-11-12T05:07:53;96.55;;;53.03;;
35394;SDS011;21500;45.308;9.488;2022-11-12T05:10:38;150.88;;;49.70;;
35394;SDS011;21500;45.308;9.488;2022-11-12T05:13:22;106.80;;;48.17;;
35394;SDS011;21500;45.308;9.488;2022-11-12T05:16:06;140.35;;;51.85;;
35394;SDS011;21500;45.308;9.488;2022-11-12T05:18:50;173.93;;;58.42;;
35394;SDS011;21500;45.308;9.488;2022-11-12T05:21:35;124.20;;;51.15;;
35394;SDS011;21500;45.308;9.488;2022-11-12T05:24:39;111.40;;;47.58;;
35394;SDS011;21500;45.308;9.488;2022-11-12T05:27:25;100.65;;;47.83;;
35394;SDS011;21500;45.308;9.488;2022-11-12T05:30:10;166.68;;;51.22;;
35394;SDS011;21500;45.308;9.488;2022-11-12T05:32:55;130.18;;;50.88;;
35394;SDS011;21500;45.308;9.488;2022-11-12T05:35:39;107.53;;;43.88;;
35394;SDS011;21500;45.308;9.488;2022-11-12T05:38:23;268.77;;;58.25;;
35394;SDS011;21500;45.308;9.488;2022-11-12T05:41:07;186.32;;;49.30;;
35394;SDS011;21500;45.308;9.488;2022-11-12T05:43:51;142.35;;;47.30;;
35394;SDS011;21500;45.308;9.488;2022-11-12T05:46:36;156.57;;;44.10;;
35394;SDS011;21500;45.308;9.488;2022-11-12T05:49:20;161.10;;;51.95;;
35394;SDS011;21500;45.308;9.488;2022-11-12T05:52:05;110.70;;;41.45;;
35394;SDS011;21500;45.308;9.488;2022-11-12T05:54:50;150.25;;;42.30;;
35394;SDS011;21500;45.308;9.488;2022-11-12T05:57:34;94.07;;;41.22;;
35394;SDS011;21500;45.308;9.488;2022-11-12T06:00:18;119.95;;;43.53;;
35394;SDS011;21500;45.308;9.488;2022-11-12T06:03:03;108.85;;;43.70;;
35394;SDS011;21500;45.308;9.488;2022-11-12T06:05:49;95.53;;;40.58;;
35394;SDS011;21500;45.308;9.488;2022-11-12T06:08:33;108.10;;;40.72;;
35394;SDS011;21500;45.308;9.488;2022-11-12T06:11:18;63.75;;;37.08;;
35394;SDS011;21500;45.308;9.488;2022-11-12T06:14:03;119.95;;;45.88;;
35394;SDS011;21500;45.308;9.488;2022-11-12T06:16:47;64.25;;;36.42;;
35394;SDS011;21500;45.308;9.488;2022-11-12T06:19:32;55.95;;;37.28;;
35394;SDS011;21500;45.308;9.488;2022-11-12T06:22:16;79.53;;;37.60;;
35394;SDS011;21500;45.308;9.488;2022-11-12T06:25:00;64.55;;;36.67;;
35394;SDS011;21500;45.308;9.488;2022-11-12T06:27:45;53.88;;;34.20;;
35394;SDS011;21500;45.308;9.488;2022-11-12T06:30:29;49.80;;;32.67;;
35394;SDS011;21500;45.308;9.488;2022-11-12T06:33:13;47.05;;;33.83;;
35394;SDS011;21500;45.308;9.488;2022-11-12T06:35:58;57.65;;;34.78;;
35394;SDS011;21500;45.308;9.488;2022-11-12T06:38:45;62.72;;;34.10;;
35394;SDS011;21500;45.308;9.488;2022-11-12T06:41:30;39.80;;;31.98;;
35394;SDS011;21500;45.308;9.488;2022-11-12T06:44:14;49.40;;;31.17;;
35394;SDS011;21500;45.308;9.488;2022-11-12T06:47:00;67.60;;;33.88;;
35394;SDS011;21500;45.308;9.488;2022-11-12T06:49:45;59.88;;;33.70;;
35394;SDS011;21500;45.308;9.488;2022-11-12T06:52:30;55.65;;;32.22;;
35394;SDS011;21500;45.308;9.488;2022-11-12T06:55:14;47.92;;;31.55;;
35394;SDS011;21500;45.308;9.488;2022-11-12T06:57:59;44.70;;;32.08;;
35394;SDS011;21500;45.308;9.488;2022-11-12T07:00:43;69.43;;;34.53;;
35394;SDS011;21500;45.308;9.488;2022-11-12T07:03:27;68.90;;;32.28;;
35394;SDS011;21500;45.308;9.488;2022-11-12T07:06:15;53.03;;;32.20;;
35394;SDS011;21500;45.308;9.488;2022-11-12T07:09:24;71.78;;;34.15;;
35394;SDS011;21500;45.308;9.488;2022-11-12T07:13:12;49.88;;;32.38;;
35394;SDS011;21500;45.308;9.488;2022-11-12T07:16:20;59.17;;;30.20;;
35394;SDS011;21500;45.308;9.488;2022-11-12T07:19:58;41.03;;;31.25;;
35394;SDS011;21500;45.308;9.488;2022-11-12T07:23:34;64.55;;;34.63;;
35394;SDS011;21500;45.308;9.488;2022-11-12T07:26:46;47.63;;;33.00;;
35394;SDS011;21500;45.308;9.488;2022-11-12T07:29:41;84.40;;;34.20;;
35394;SDS011;21500;45.308;9.488;2022-11-12T07:32:28;59.50;;;35.25;;
35394;SDS011;21500;45.308;9.488;2022-11-12T07:39:10;75.00;;;35.42;;
35394;SDS011;21500;45.308;9.488;2022-11-12T08:18:55;46.17;;;32.70;;
35394;SDS011;21500;45.308;9.488;2022-11-12T08:22:10;38.60;;;29.70;;
35394;SDS011;21500;45.308;9.488;2022-11-12T08:24:58;42.72;;;30.83;;
35394;SDS011;21500;45.308;9.488;2022-11-12T08:28:08;32.38;;;28.75;;
35394;SDS011;21500;45.308;9.488;2022-11-12T08:31:09;33.60;;;28.85;;
35394;SDS011;21500;45.308;9.488;2022-11-12T08:33:59;33.72;;;26.60;;
35394;SDS011;21500;45.308;9.488;2022-11-12T08:36:54;30.63;;;24.65;;
35394;SDS011;21500;45.308;9.488;2022-11-12T08:39:39;29.77;;;25.48;;
35394;SDS011;21500;45.308;9.488;2022-11-12T08:42:56;33.20;;;26.45;;
35394;SDS011;21500;45.308;9.488;2022-11-12T08:46:04;33.88;;;25.45;;
35394;SDS011;21500;45.308;9.488;2022-11-12T08:52:34;28.48;;;24.08;;
35394;SDS011;21500;45.308;9.488;2022-11-12T08:55:22;26.40;;;21.48;;
35394;SDS011;21500;45.308;9.488;2022-11-12T10:55:34;14.45;;;13.15;;
35394;SDS011;21500;45.308;9.488;2022-11-12T10:59:16;14.27;;;12.57;;
35394;SDS011;21500;45.308;9.488;2022-11-12T11:01:58;14.95;;;13.50;;
35394;SDS011;21500;45.308;9.488;2022-11-12T11:04:48;16.92;;;14.07;;
35394;SDS011;21500;45.308;9.488;2022-11-12T11:07:52;14.68;;;13.10;;
35394;SDS011;21500;45.308;9.488;2022-11-12T11:15:30;17.58;;;15.05;;
35394;SDS011;21500;45.308;9.488;2022-11-12T11:30:32;16.95;;;15.15;;
35394;SDS011;21500;45.308;9.488;2022-11-12T11:47:14;21.67;;;19.30;;
35394;SDS011;21500;45.308;9.488;2022-11-12T11:58:46;29.42;;;24.80;;
35394;SDS011;21500;45.308;9.488;2022-11-12T12:04:49;32.50;;;28.40;;
35394;SDS011;21500;45.308;9.488;2022-11-12T12:11:39;38.42;;;33.10;;
35394;SDS011;21500;45.308;9.488;2022-11-12T12:14:54;36.92;;;32.00;;
35394;SDS011;21500;45.308;9.488;2022-11-12T13:04:09;57.67;;;45.55;;
35394;SDS011;21500;45.308;9.488;2022-11-12T13:07:45;53.00;;;41.88;;
35394;SDS011;21500;45.308;9.488;2022-11-12T19:24:06;73.72;;;57.30;;
35394;SDS011;21500;45.308;9.488;2022-11-12T19:26:51;73.53;;;55.70;;
35394;SDS011;21500;45.308;9.488;2022-11-12T19:29:36;72.80;;;56.53;;
35394;SDS011;21500;45.308;9.488;2022-11-12T19:32:21;68.88;;;53.35;;
35394;SDS011;21500;45.308;9.488;2022-11-12T19:35:06;73.45;;;54.78;;
35394;SDS011;21500;45.308;9.488;2022-11-12T19:37:52;75.93;;;56.83;;
35394;SDS011;21500;45.308;9.488;2022-11-12T19:40:37;71.53;;;56.10;;
35394;SDS011;21500;45.308;9.488;2022-11-12T19:43:22;82.32;;;60.97;;
35394;SDS011;21500;45.308;9.488;2022-11-12T19:46:19;75.82;;;57.70;;
35394;SDS011;21500;45.308;9.488;2022-11-12T19:49:05;81.65;;;59.80;;
35394;SDS011;21500;45.308;9.488;2022-11-12T19:51:49;80.53;;;59.05;;
35394;SDS011;21500;45.308;9.488;2022-11-12T19:57:31;76.50;;;54.92;;
35394;SDS011;21500;45.308;9.488;2022-11-12T21:07:49;77.47;;;55.63;;
35394;SDS011;21500;45.308;9.488;2022-11-12T21:18:49;99.85;;;61.67;;
35394;SDS011;21500;45.308;9.488;2022-11-12T21:21:35;93.65;;;60.25;;
35394;SDS011;21500;45.308;9.488;2022-11-12T21:24:20;91.13;;;60.53;;
35394;SDS011;21500;45.308;9.488;2022-11-12T21:27:05;95.07;;;62.17;;
35394;SDS011;21500;45.308;9.488;2022-11-12T21:29:50;92.78;;;63.15;;
35394;SDS011;21500;45.308;9.488;2022-11-12T21:32:35;97.95;;;61.78;;
35394;SDS011;21500;45.308;9.488;2022-11-12T21:35:19;105.70;;;64.32;;
35394;SDS011;21500;45.308;9.488;2022-11-12T21:38:04;111.63;;;66.65;;
35394;SDS011;21500;45.308;9.488;2022-11-12T21:40:49;121.18;;;71.20;;
35394;SDS011;21500;45.308;9.488;2022-11-12T21:50:53;112.18;;;66.25;;
35394;SDS011;21500;45.308;9.488;2022-11-12T21:54:43;135.43;;;70.97;;
35394;SDS011;21500;45.308;9.488;2022-11-12T21:58:04;127.95;;;73.05;;
35394;SDS011;21500;45.308;9.488;2022-11-12T22:22:18;112.63;;;69.50;;
35394;SDS011;21500;45.308;9.488;2022-11-12T22:25:27;115.65;;;72.45;;
35394;SDS011;21500;45.308;9.488;2022-11-12T22:28:11;120.22;;;73.28;;
35394;SDS011;21500;45.308;9.488;2022-11-12T22:31:01;112.50;;;70.57;;
35394;SDS011;21500;45.308;9.488;2022-11-12T22:33:59;131.40;;;79.22;;
35394;SDS011;21500;45.308;9.488;2022-11-12T22:39:41;111.05;;;72.55;;
35394;SDS011;21500;45.308;9.488;2022-11-12T22:43:25;117.75;;;72.32;;
35394;SDS011;21500;45.308;9.488;2022-11-12T22:46:36;111.40;;;70.15;;
35394;SDS011;21500;45.308;9.488;2022-11-12T22:49:27;114.10;;;74.43;;
35394;SDS011;21500;45.308;9.488;2022-11-12T23:18:17;86.47;;;58.35;;
35394;SDS011;21500;45.308;9.488;2022-11-12T23:21:08;79.78;;;58.53;;
35394;SDS011;21500;45.308;9.488;2022-11-12T23:24:13;85.20;;;60.70;;
35394;SDS011;21500;45.308;9.488;2022-11-12T23:27:02;87.70;;;58.40;;
35394;SDS011;21500;45.308;9.488;2022-11-12T23:29:54;80.88;;;59.17;;
35394;SDS011;21500;45.308;9.488;2022-11-12T23:32:56;81.80;;;57.78;;
35394;SDS011;21500;45.308;9.488;2022-11-12T23:36:31;92.25;;;62.80;;
35394;SDS011;21500;45.308;9.488;2022-11-12T23:46:52;110.90;;;72.68;;
35394;SDS011;21500;45.308;9.488;2022-11-12T23:49:39;106.03;;;69.75;;
35394;SDS011;21500;45.308;9.488;2022-11-12T23:52:36;107.10;;;67.10;;
35394;SDS011;21500;45.308;9.488;2022-11-12T23:55:32;106.47;;;68.00;;
35394;SDS011;21500;45.308;9.488;2022-11-12T23:58:24;108.65;;;66.18;;
